Startpagina
METAR-TAF:

METAR-TAF

Vliegvelden :

Vliegbasis Leeuwarden

Leeuwarden, Nederland

breedte: 53-13N, lengte: 005-46E, hoogte: 1 m

Actueel weer

Dit bericht is 27 minuten geleden gemaakt, om 02:01 UTC
Wind 7 kt uit het oostnoordoosten, variërend tussen het noordnoordoosten en het zuidoosten
Temperatuur 0°C
Vochtigheid 93%
Druk 1033 hPa
Zicht: 7000 m
nevel

METAR: EHLW 180201Z AUTO 07007KT 020V130 7000 BR NCD M00/M01 Q1033 WHT

Tijdstip: 03:28 (02:28 UTC)

Verwachting

Dit bericht is 4 uur en het 57 minuten geleden gemaakt, om 21:31 UTC
Verwachting geldig van 17 om 22 UTC tot 18 om 10 UTC
Wind 10 kt uit het oosten
Zicht 10 km of meer
geen wolken onder 1500 m en geen cumulonimbus

TAF: EHLW 172131Z 1722/1810 09010KT CAVOK

Waarnemingen en weersverwachtingen van meer dan 4000 vliegvelden (METAR en TAF).

De beschikbare stations zijn de gele en rode punten op de kaart.

Ga met uw muis naar het station om de naam te zien.

Klik dan om waarnemingen en weersverwachtingen te zien.

kaart wijzigen: klik op de groene knoppen met een zwart kruis om in te zoomen, op de groene knop met een streepje om uit te zoomen of op de groene pijlen voor aangrenzende kaarten.


METAR-TAF: